sensor_id;sensor_type;location;lat;lon;timestamp;P1;durP1;ratioP1;P2;durP2;ratioP2
71959;SDS011;59832;51.146;14.024;2024-01-30T00:02:19;29.02;;;15.25;;
71959;SDS011;59832;51.146;14.024;2024-01-30T00:04:45;26.25;;;15.02;;
71959;SDS011;59832;51.146;14.024;2024-01-30T00:07:11;30.45;;;15.93;;
71959;SDS011;59832;51.146;14.024;2024-01-30T00:09:38;26.88;;;14.27;;
71959;SDS011;59832;51.146;14.024;2024-01-30T00:12:06;26.60;;;14.77;;
71959;SDS011;59832;51.146;14.024;2024-01-30T00:14:32;31.67;;;16.00;;
71959;SDS011;59832;51.146;14.024;2024-01-30T00:16:59;25.83;;;14.45;;
71959;SDS011;59832;51.146;14.024;2024-01-30T00:19:25;25.45;;;14.23;;
71959;SDS011;59832;51.146;14.024;2024-01-30T00:21:52;27.58;;;14.70;;
71959;SDS011;59832;51.146;14.024;2024-01-30T00:24:18;31.75;;;15.48;;
71959;SDS011;59832;51.146;14.024;2024-01-30T00:26:45;24.77;;;14.32;;
71959;SDS011;59832;51.146;14.024;2024-01-30T00:29:11;29.50;;;14.88;;
71959;SDS011;59832;51.146;14.024;2024-01-30T00:31:38;29.60;;;14.45;;
71959;SDS011;59832;51.146;14.024;2024-01-30T00:34:07;25.50;;;14.27;;
71959;SDS011;59832;51.146;14.024;2024-01-30T00:36:34;32.88;;;15.25;;
71959;SDS011;59832;51.146;14.024;2024-01-30T00:39:00;24.10;;;13.73;;
71959;SDS011;59832;51.146;14.024;2024-01-30T00:41:26;31.95;;;14.38;;
71959;SDS011;59832;51.146;14.024;2024-01-30T00:43:53;29.13;;;15.13;;
71959;SDS011;59832;51.146;14.024;2024-01-30T00:46:19;26.00;;;13.98;;
71959;SDS011;59832;51.146;14.024;2024-01-30T00:48:46;24.88;;;13.98;;
71959;SDS011;59832;51.146;14.024;2024-01-30T00:51:12;29.45;;;14.52;;
71959;SDS011;59832;51.146;14.024;2024-01-30T00:53:39;29.42;;;14.20;;
71959;SDS011;59832;51.146;14.024;2024-01-30T00:56:05;25.35;;;13.77;;
71959;SDS011;59832;51.146;14.024;2024-01-30T00:58:32;30.30;;;14.90;;
71959;SDS011;59832;51.146;14.024;2024-01-30T01:00:58;28.05;;;14.40;;
71959;SDS011;59832;51.146;14.024;2024-01-30T01:03:25;24.85;;;13.50;;
71959;SDS011;59832;51.146;14.024;2024-01-30T01:05:51;25.63;;;13.80;;
71959;SDS011;59832;51.146;14.024;2024-01-30T01:08:18;27.80;;;13.88;;
71959;SDS011;59832;51.146;14.024;2024-01-30T01:10:44;25.98;;;13.50;;
71959;SDS011;59832;51.146;14.024;2024-01-30T01:13:10;27.02;;;13.60;;
71959;SDS011;59832;51.146;14.024;2024-01-30T01:15:37;24.70;;;13.30;;
71959;SDS011;59832;51.146;14.024;2024-01-30T01:18:04;23.50;;;13.73;;
71959;SDS011;59832;51.146;14.024;2024-01-30T01:20:31;27.60;;;13.50;;
71959;SDS011;59832;51.146;14.024;2024-01-30T01:22:57;24.75;;;13.82;;
71959;SDS011;59832;51.146;14.024;2024-01-30T01:25:24;26.48;;;14.02;;
71959;SDS011;59832;51.146;14.024;2024-01-30T01:27:50;23.17;;;13.35;;
71959;SDS011;59832;51.146;14.024;2024-01-30T01:30:20;25.60;;;13.48;;
71959;SDS011;59832;51.146;14.024;2024-01-30T01:32:49;25.23;;;13.98;;
71959;SDS011;59832;51.146;14.024;2024-01-30T01:35:23;28.48;;;14.18;;
71959;SDS011;59832;51.146;14.024;2024-01-30T01:37:54;25.50;;;13.60;;
71959;SDS011;59832;51.146;14.024;2024-01-30T01:40:25;29.50;;;14.52;;
71959;SDS011;59832;51.146;14.024;2024-01-30T01:42:54;27.95;;;14.90;;
71959;SDS011;59832;51.146;14.024;2024-01-30T01:45:22;25.23;;;13.38;;
71959;SDS011;59832;51.146;14.024;2024-01-30T01:47:51;29.83;;;14.63;;
71959;SDS011;59832;51.146;14.024;2024-01-30T01:50:19;31.60;;;14.75;;
71959;SDS011;59832;51.146;14.024;2024-01-30T01:52:47;29.00;;;15.30;;
71959;SDS011;59832;51.146;14.024;2024-01-30T01:55:14;29.25;;;15.27;;
71959;SDS011;59832;51.146;14.024;2024-01-30T01:57:42;30.50;;;15.13;;
71959;SDS011;59832;51.146;14.024;2024-01-30T02:00:09;31.13;;;14.68;;
71959;SDS011;59832;51.146;14.024;2024-01-30T02:02:38;31.30;;;14.82;;
71959;SDS011;59832;51.146;14.024;2024-01-30T02:05:05;30.70;;;15.55;;
71959;SDS011;59832;51.146;14.024;2024-01-30T02:07:32;30.42;;;14.98;;
71959;SDS011;59832;51.146;14.024;2024-01-30T02:09:59;26.53;;;14.93;;
71959;SDS011;59832;51.146;14.024;2024-01-30T02:12:25;32.58;;;16.17;;
71959;SDS011;59832;51.146;14.024;2024-01-30T02:14:51;33.00;;;15.77;;
71959;SDS011;59832;51.146;14.024;2024-01-30T02:17:19;30.65;;;15.15;;
71959;SDS011;59832;51.146;14.024;2024-01-30T02:19:46;27.90;;;15.43;;
71959;SDS011;59832;51.146;14.024;2024-01-30T02:22:13;27.30;;;15.05;;
71959;SDS011;59832;51.146;14.024;2024-01-30T02:24:40;32.53;;;15.85;;
71959;SDS011;59832;51.146;14.024;2024-01-30T02:27:06;28.77;;;15.13;;
71959;SDS011;59832;51.146;14.024;2024-01-30T02:29:33;30.00;;;15.50;;
71959;SDS011;59832;51.146;14.024;2024-01-30T02:31:59;30.10;;;15.38;;
71959;SDS011;59832;51.146;14.024;2024-01-30T02:34:25;31.88;;;15.60;;
71959;SDS011;59832;51.146;14.024;2024-01-30T02:36:52;31.17;;;15.93;;
71959;SDS011;59832;51.146;14.024;2024-01-30T02:39:19;31.88;;;15.20;;
71959;SDS011;59832;51.146;14.024;2024-01-30T02:41:45;29.40;;;15.95;;
71959;SDS011;59832;51.146;14.024;2024-01-30T02:44:12;29.67;;;15.63;;
71959;SDS011;59832;51.146;14.024;2024-01-30T02:46:38;28.60;;;15.15;;
71959;SDS011;59832;51.146;14.024;2024-01-30T02:49:05;28.92;;;15.68;;
71959;SDS011;59832;51.146;14.024;2024-01-30T02:51:31;30.48;;;16.13;;
71959;SDS011;59832;51.146;14.024;2024-01-30T02:53:58;30.20;;;16.02;;
71959;SDS011;59832;51.146;14.024;2024-01-30T02:56:24;29.77;;;15.60;;
71959;SDS011;59832;51.146;14.024;2024-01-30T02:58:50;31.95;;;15.73;;
71959;SDS011;59832;51.146;14.024;2024-01-30T03:01:17;34.35;;;15.40;;
71959;SDS011;59832;51.146;14.024;2024-01-30T03:03:43;35.97;;;16.45;;
71959;SDS011;59832;51.146;14.024;2024-01-30T03:06:10;29.40;;;15.32;;
71959;SDS011;59832;51.146;14.024;2024-01-30T03:08:36;34.97;;;15.88;;
71959;SDS011;59832;51.146;14.024;2024-01-30T03:11:03;35.15;;;16.48;;
71959;SDS011;59832;51.146;14.024;2024-01-30T03:13:30;30.10;;;15.80;;
71959;SDS011;59832;51.146;14.024;2024-01-30T03:15:57;32.28;;;16.25;;
71959;SDS011;59832;51.146;14.024;2024-01-30T03:18:23;34.22;;;16.05;;
71959;SDS011;59832;51.146;14.024;2024-01-30T03:20:50;33.22;;;15.90;;
71959;SDS011;59832;51.146;14.024;2024-01-30T03:23:16;30.40;;;16.65;;
71959;SDS011;59832;51.146;14.024;2024-01-30T03:25:43;33.15;;;16.50;;
71959;SDS011;59832;51.146;14.024;2024-01-30T03:28:09;30.02;;;15.23;;
71959;SDS011;59832;51.146;14.024;2024-01-30T03:30:36;31.42;;;16.08;;
71959;SDS011;59832;51.146;14.024;2024-01-30T03:33:02;31.23;;;15.75;;
71959;SDS011;59832;51.146;14.024;2024-01-30T03:35:29;30.00;;;15.13;;
71959;SDS011;59832;51.146;14.024;2024-01-30T03:37:55;30.58;;;16.10;;
71959;SDS011;59832;51.146;14.024;2024-01-30T03:40:21;34.22;;;16.15;;
71959;SDS011;59832;51.146;14.024;2024-01-30T03:42:48;35.63;;;16.35;;
71959;SDS011;59832;51.146;14.024;2024-01-30T03:45:15;30.45;;;16.05;;
71959;SDS011;59832;51.146;14.024;2024-01-30T03:47:43;34.28;;;16.23;;
71959;SDS011;59832;51.146;14.024;2024-01-30T03:50:10;34.03;;;16.65;;
71959;SDS011;59832;51.146;14.024;2024-01-30T03:52:36;34.75;;;16.23;;
71959;SDS011;59832;51.146;14.024;2024-01-30T03:55:03;29.05;;;16.20;;
71959;SDS011;59832;51.146;14.024;2024-01-30T03:57:29;32.93;;;16.07;;
71959;SDS011;59832;51.146;14.024;2024-01-30T03:59:56;27.70;;;15.97;;
71959;SDS011;59832;51.146;14.024;2024-01-30T04:02:26;31.08;;;16.33;;
71959;SDS011;59832;51.146;14.024;2024-01-30T04:04:52;34.65;;;17.10;;
71959;SDS011;59832;51.146;14.024;2024-01-30T04:07:19;37.50;;;17.00;;
71959;SDS011;59832;51.146;14.024;2024-01-30T04:09:49;30.80;;;16.10;;
71959;SDS011;59832;51.146;14.024;2024-01-30T04:12:15;33.80;;;16.33;;
71959;SDS011;59832;51.146;14.024;2024-01-30T04:14:43;32.67;;;16.15;;
71959;SDS011;59832;51.146;14.024;2024-01-30T04:17:10;35.42;;;17.42;;
71959;SDS011;59832;51.146;14.024;2024-01-30T04:19:39;33.97;;;16.05;;
71959;SDS011;59832;51.146;14.024;2024-01-30T04:22:06;32.50;;;16.02;;
71959;SDS011;59832;51.146;14.024;2024-01-30T04:24:32;33.08;;;15.95;;
71959;SDS011;59832;51.146;14.024;2024-01-30T04:26:59;31.42;;;17.05;;
71959;SDS011;59832;51.146;14.024;2024-01-30T04:29:25;34.28;;;15.60;;
71959;SDS011;59832;51.146;14.024;2024-01-30T04:31:51;31.58;;;16.45;;
71959;SDS011;59832;51.146;14.024;2024-01-30T04:34:18;35.47;;;16.35;;
71959;SDS011;59832;51.146;14.024;2024-01-30T04:36:44;31.55;;;16.15;;
71959;SDS011;59832;51.146;14.024;2024-01-30T04:39:12;31.20;;;15.80;;
71959;SDS011;59832;51.146;14.024;2024-01-30T04:41:39;32.93;;;16.63;;
71959;SDS011;59832;51.146;14.024;2024-01-30T04:44:06;29.83;;;15.25;;
71959;SDS011;59832;51.146;14.024;2024-01-30T04:46:33;33.10;;;15.95;;
71959;SDS011;59832;51.146;14.024;2024-01-30T04:49:00;30.85;;;15.95;;
71959;SDS011;59832;51.146;14.024;2024-01-30T04:51:27;33.30;;;16.52;;
71959;SDS011;59832;51.146;14.024;2024-01-30T04:53:53;28.63;;;16.05;;
71959;SDS011;59832;51.146;14.024;2024-01-30T04:56:20;27.88;;;15.63;;
71959;SDS011;59832;51.146;14.024;2024-01-30T04:58:46;28.40;;;15.40;;
71959;SDS011;59832;51.146;14.024;2024-01-30T05:01:16;29.50;;;15.20;;
71959;SDS011;59832;51.146;14.024;2024-01-30T05:03:43;28.52;;;14.90;;
71959;SDS011;59832;51.146;14.024;2024-01-30T05:06:10;34.17;;;15.40;;
71959;SDS011;59832;51.146;14.024;2024-01-30T05:08:36;30.83;;;15.30;;
71959;SDS011;59832;51.146;14.024;2024-01-30T05:11:04;28.60;;;15.23;;
71959;SDS011;59832;51.146;14.024;2024-01-30T05:13:31;28.15;;;15.00;;
71959;SDS011;59832;51.146;14.024;2024-01-30T05:15:58;29.30;;;15.13;;
71959;SDS011;59832;51.146;14.024;2024-01-30T05:18:24;36.38;;;15.90;;
71959;SDS011;59832;51.146;14.024;2024-01-30T05:20:51;32.88;;;16.05;;
71959;SDS011;59832;51.146;14.024;2024-01-30T05:23:18;30.98;;;15.60;;
71959;SDS011;59832;51.146;14.024;2024-01-30T05:25:44;32.97;;;15.80;;
71959;SDS011;59832;51.146;14.024;2024-01-30T05:28:10;35.13;;;15.55;;
71959;SDS011;59832;51.146;14.024;2024-01-30T05:30:37;35.67;;;15.65;;
71959;SDS011;59832;51.146;14.024;2024-01-30T05:33:03;30.25;;;15.65;;
71959;SDS011;59832;51.146;14.024;2024-01-30T05:35:30;30.25;;;15.50;;
71959;SDS011;59832;51.146;14.024;2024-01-30T05:37:57;30.55;;;15.95;;
71959;SDS011;59832;51.146;14.024;2024-01-30T05:40:24;29.75;;;14.93;;
71959;SDS011;59832;51.146;14.024;2024-01-30T05:42:50;28.40;;;15.65;;
71959;SDS011;59832;51.146;14.024;2024-01-30T05:45:17;32.17;;;16.05;;
71959;SDS011;59832;51.146;14.024;2024-01-30T05:47:43;28.90;;;15.68;;
71959;SDS011;59832;51.146;14.024;2024-01-30T05:50:09;32.03;;;15.30;;
71959;SDS011;59832;51.146;14.024;2024-01-30T05:52:36;27.30;;;15.65;;
71959;SDS011;59832;51.146;14.024;2024-01-30T05:55:03;31.87;;;15.67;;
71959;SDS011;59832;51.146;14.024;2024-01-30T05:57:30;27.50;;;15.05;;
71959;SDS011;59832;51.146;14.024;2024-01-30T05:59:56;28.17;;;15.10;;
71959;SDS011;59832;51.146;14.024;2024-01-30T06:02:23;32.67;;;16.10;;
71959;SDS011;59832;51.146;14.024;2024-01-30T06:04:49;29.65;;;16.23;;
71959;SDS011;59832;51.146;14.024;2024-01-30T06:07:16;29.20;;;16.15;;
71959;SDS011;59832;51.146;14.024;2024-01-30T06:09:44;34.45;;;16.08;;
71959;SDS011;59832;51.146;14.024;2024-01-30T06:12:12;31.55;;;15.98;;
71959;SDS011;59832;51.146;14.024;2024-01-30T06:14:38;31.25;;;16.17;;
71959;SDS011;59832;51.146;14.024;2024-01-30T06:17:05;31.50;;;15.95;;
71959;SDS011;59832;51.146;14.024;2024-01-30T06:19:31;34.13;;;15.38;;
71959;SDS011;59832;51.146;14.024;2024-01-30T06:21:58;32.25;;;15.50;;
71959;SDS011;59832;51.146;14.024;2024-01-30T06:24:24;26.65;;;14.85;;
71959;SDS011;59832;51.146;14.024;2024-01-30T06:26:51;29.60;;;15.70;;
71959;SDS011;59832;51.146;14.024;2024-01-30T06:29:17;27.10;;;15.93;;
71959;SDS011;59832;51.146;14.024;2024-01-30T06:31:45;29.08;;;15.48;;
71959;SDS011;59832;51.146;14.024;2024-01-30T06:34:12;33.35;;;15.43;;
71959;SDS011;59832;51.146;14.024;2024-01-30T06:36:38;30.20;;;15.87;;
71959;SDS011;59832;51.146;14.024;2024-01-30T06:39:05;26.85;;;14.82;;
71959;SDS011;59832;51.146;14.024;2024-01-30T06:41:32;32.47;;;15.23;;
71959;SDS011;59832;51.146;14.024;2024-01-30T06:43:58;31.52;;;15.65;;
71959;SDS011;59832;51.146;14.024;2024-01-30T06:46:24;28.17;;;15.18;;
71959;SDS011;59832;51.146;14.024;2024-01-30T06:48:51;31.73;;;15.82;;
71959;SDS011;59832;51.146;14.024;2024-01-30T06:51:18;29.13;;;15.23;;
71959;SDS011;59832;51.146;14.024;2024-01-30T06:53:44;28.98;;;15.32;;
71959;SDS011;59832;51.146;14.024;2024-01-30T06:56:11;32.60;;;15.63;;
71959;SDS011;59832;51.146;14.024;2024-01-30T06:58:37;28.95;;;15.15;;
71959;SDS011;59832;51.146;14.024;2024-01-30T07:01:03;28.65;;;15.07;;
71959;SDS011;59832;51.146;14.024;2024-01-30T07:03:30;31.30;;;15.60;;
71959;SDS011;59832;51.146;14.024;2024-01-30T07:05:57;29.77;;;15.38;;
71959;SDS011;59832;51.146;14.024;2024-01-30T07:08:23;29.02;;;15.13;;
71959;SDS011;59832;51.146;14.024;2024-01-30T07:10:49;29.52;;;15.25;;
71959;SDS011;59832;51.146;14.024;2024-01-30T07:13:16;27.35;;;14.70;;
71959;SDS011;59832;51.146;14.024;2024-01-30T07:15:42;27.97;;;15.43;;
71959;SDS011;59832;51.146;14.024;2024-01-30T07:18:09;24.73;;;14.75;;
71959;SDS011;59832;51.146;14.024;2024-01-30T07:20:36;24.48;;;14.35;;
71959;SDS011;59832;51.146;14.024;2024-01-30T07:23:02;27.58;;;14.80;;
71959;SDS011;59832;51.146;14.024;2024-01-30T07:25:29;25.13;;;14.90;;
71959;SDS011;59832;51.146;14.024;2024-01-30T07:27:56;29.23;;;14.37;;
71959;SDS011;59832;51.146;14.024;2024-01-30T07:30:22;26.23;;;14.53;;
71959;SDS011;59832;51.146;14.024;2024-01-30T07:32:49;27.35;;;15.10;;
71959;SDS011;59832;51.146;14.024;2024-01-30T07:35:16;31.73;;;14.93;;
71959;SDS011;59832;51.146;14.024;2024-01-30T07:37:42;30.40;;;14.47;;
71959;SDS011;59832;51.146;14.024;2024-01-30T07:40:09;24.15;;;14.32;;
71959;SDS011;59832;51.146;14.024;2024-01-30T07:42:36;26.55;;;13.65;;
71959;SDS011;59832;51.146;14.024;2024-01-30T07:45:02;24.00;;;14.70;;
71959;SDS011;59832;51.146;14.024;2024-01-30T07:47:29;28.10;;;14.63;;
71959;SDS011;59832;51.146;14.024;2024-01-30T07:49:56;27.63;;;15.13;;
71959;SDS011;59832;51.146;14.024;2024-01-30T07:52:22;28.00;;;14.65;;
71959;SDS011;59832;51.146;14.024;2024-01-30T07:54:49;24.48;;;13.60;;
71959;SDS011;59832;51.146;14.024;2024-01-30T07:57:16;22.88;;;13.93;;
71959;SDS011;59832;51.146;14.024;2024-01-30T07:59:44;24.90;;;13.77;;
71959;SDS011;59832;51.146;14.024;2024-01-30T08:02:14;23.40;;;13.25;;
71959;SDS011;59832;51.146;14.024;2024-01-30T08:04:40;25.08;;;13.50;;
71959;SDS011;59832;51.146;14.024;2024-01-30T08:07:07;25.17;;;13.85;;
71959;SDS011;59832;51.146;14.024;2024-01-30T08:09:34;25.60;;;13.27;;
71959;SDS011;59832;51.146;14.024;2024-01-30T08:12:00;30.33;;;13.55;;
71959;SDS011;59832;51.146;14.024;2024-01-30T08:14:27;25.45;;;13.82;;
71959;SDS011;59832;51.146;14.024;2024-01-30T08:16:54;25.50;;;13.18;;
71959;SDS011;59832;51.146;14.024;2024-01-30T08:19:21;25.35;;;14.50;;
71959;SDS011;59832;51.146;14.024;2024-01-30T08:21:48;23.77;;;14.20;;
71959;SDS011;59832;51.146;14.024;2024-01-30T08:24:14;23.00;;;13.33;;
71959;SDS011;59832;51.146;14.024;2024-01-30T08:26:41;26.88;;;13.30;;
71959;SDS011;59832;51.146;14.024;2024-01-30T08:29:08;27.70;;;14.00;;
71959;SDS011;59832;51.146;14.024;2024-01-30T08:31:34;23.70;;;13.10;;
71959;SDS011;59832;51.146;14.024;2024-01-30T08:34:01;25.38;;;13.68;;
71959;SDS011;59832;51.146;14.024;2024-01-30T08:36:28;25.13;;;14.57;;
71959;SDS011;59832;51.146;14.024;2024-01-30T08:38:54;27.15;;;14.40;;
71959;SDS011;59832;51.146;14.024;2024-01-30T08:41:27;25.10;;;13.95;;
71959;SDS011;59832;51.146;14.024;2024-01-30T08:43:53;28.55;;;14.25;;
71959;SDS011;59832;51.146;14.024;2024-01-30T08:46:20;28.65;;;15.18;;
71959;SDS011;59832;51.146;14.024;2024-01-30T08:48:47;26.13;;;13.35;;
71959;SDS011;59832;51.146;14.024;2024-01-30T08:51:14;27.63;;;15.15;;
71959;SDS011;59832;51.146;14.024;2024-01-30T08:56:08;34.22;;;14.98;;
71959;SDS011;59832;51.146;14.024;2024-01-30T08:58:35;28.02;;;15.40;;
71959;SDS011;59832;51.146;14.024;2024-01-30T09:01:01;27.17;;;14.82;;
71959;SDS011;59832;51.146;14.024;2024-01-30T09:03:30;28.00;;;15.18;;
71959;SDS011;59832;51.146;14.024;2024-01-30T09:05:56;26.55;;;14.52;;
71959;SDS011;59832;51.146;14.024;2024-01-30T09:08:23;25.77;;;14.63;;
71959;SDS011;59832;51.146;14.024;2024-01-30T09:10:49;26.55;;;14.68;;
71959;SDS011;59832;51.146;14.024;2024-01-30T09:13:16;24.77;;;14.07;;
71959;SDS011;59832;51.146;14.024;2024-01-30T09:15:43;25.27;;;14.35;;
71959;SDS011;59832;51.146;14.024;2024-01-30T09:18:09;26.10;;;14.18;;
71959;SDS011;59832;51.146;14.024;2024-01-30T09:20:36;23.95;;;14.25;;
71959;SDS011;59832;51.146;14.024;2024-01-30T09:23:03;28.35;;;13.90;;
71959;SDS011;59832;51.146;14.024;2024-01-30T09:25:29;28.47;;;15.40;;
71959;SDS011;59832;51.146;14.024;2024-01-30T09:27:56;26.15;;;14.23;;
71959;SDS011;59832;51.146;14.024;2024-01-30T09:30:22;24.27;;;13.30;;
71959;SDS011;59832;51.146;14.024;2024-01-30T09:32:49;23.10;;;14.63;;
71959;SDS011;59832;51.146;14.024;2024-01-30T09:35:15;24.70;;;13.32;;
71959;SDS011;59832;51.146;14.024;2024-01-30T09:37:42;27.05;;;14.02;;
71959;SDS011;59832;51.146;14.024;2024-01-30T09:40:08;24.80;;;15.05;;
71959;SDS011;59832;51.146;14.024;2024-01-30T09:42:36;31.13;;;15.50;;
71959;SDS011;59832;51.146;14.024;2024-01-30T09:47:31;24.33;;;13.48;;
71959;SDS011;59832;51.146;14.024;2024-01-30T09:50:06;26.83;;;14.10;;
71959;SDS011;59832;51.146;14.024;2024-01-30T09:52:33;27.05;;;14.60;;
71959;SDS011;59832;51.146;14.024;2024-01-30T09:55:00;26.08;;;14.48;;
71959;SDS011;59832;51.146;14.024;2024-01-30T09:57:27;28.80;;;15.02;;
71959;SDS011;59832;51.146;14.024;2024-01-30T09:59:54;24.63;;;13.80;;
71959;SDS011;59832;51.146;14.024;2024-01-30T10:02:20;27.10;;;14.32;;
71959;SDS011;59832;51.146;14.024;2024-01-30T10:04:47;27.95;;;15.10;;
71959;SDS011;59832;51.146;14.024;2024-01-30T10:07:16;26.27;;;15.18;;
71959;SDS011;59832;51.146;14.024;2024-01-30T10:09:43;27.17;;;15.30;;
71959;SDS011;59832;51.146;14.024;2024-01-30T10:12:09;27.50;;;14.82;;
71959;SDS011;59832;51.146;14.024;2024-01-30T10:14:39;32.37;;;15.73;;
71959;SDS011;59832;51.146;14.024;2024-01-30T10:17:09;26.50;;;15.60;;
71959;SDS011;59832;51.146;14.024;2024-01-30T10:19:47;28.30;;;15.18;;
71959;SDS011;59832;51.146;14.024;2024-01-30T10:22:13;34.65;;;16.38;;
71959;SDS011;59832;51.146;14.024;2024-01-30T10:24:40;28.02;;;15.63;;
71959;SDS011;59832;51.146;14.024;2024-01-30T10:27:06;26.02;;;14.70;;
71959;SDS011;59832;51.146;14.024;2024-01-30T10:29:33;24.23;;;15.18;;
71959;SDS011;59832;51.146;14.024;2024-01-30T10:32:03;29.15;;;15.30;;
71959;SDS011;59832;51.146;14.024;2024-01-30T10:34:32;29.08;;;15.45;;
71959;SDS011;59832;51.146;14.024;2024-01-30T10:37:07;28.58;;;15.70;;
71959;SDS011;59832;51.146;14.024;2024-01-30T10:39:44;28.98;;;16.17;;
71959;SDS011;59832;51.146;14.024;2024-01-30T10:42:18;27.88;;;15.93;;
71959;SDS011;59832;51.146;14.024;2024-01-30T10:47:52;30.08;;;15.35;;
71959;SDS011;59832;51.146;14.024;2024-01-30T10:50:21;26.67;;;15.98;;
71959;SDS011;59832;51.146;14.024;2024-01-30T10:52:51;24.98;;;15.40;;
71959;SDS011;59832;51.146;14.024;2024-01-30T10:55:19;30.65;;;15.75;;
71959;SDS011;59832;51.146;14.024;2024-01-30T10:57:48;27.50;;;15.02;;
71959;SDS011;59832;51.146;14.024;2024-01-30T11:00:14;26.87;;;15.60;;
71959;SDS011;59832;51.146;14.024;2024-01-30T11:02:45;24.52;;;15.00;;
71959;SDS011;59832;51.146;14.024;2024-01-30T11:05:13;23.83;;;15.13;;
71959;SDS011;59832;51.146;14.024;2024-01-30T11:07:41;27.13;;;15.20;;
71959;SDS011;59832;51.146;14.024;2024-01-30T11:10:08;28.20;;;15.37;;
71959;SDS011;59832;51.146;14.024;2024-01-30T11:15:12;25.33;;;14.60;;
71959;SDS011;59832;51.146;14.024;2024-01-30T11:20:16;30.48;;;14.77;;
71959;SDS011;59832;51.146;14.024;2024-01-30T11:22:46;24.38;;;14.32;;
71959;SDS011;59832;51.146;14.024;2024-01-30T11:25:14;24.10;;;14.20;;
71959;SDS011;59832;51.146;14.024;2024-01-30T11:27:42;26.80;;;15.30;;
71959;SDS011;59832;51.146;14.024;2024-01-30T11:30:10;26.25;;;14.85;;
71959;SDS011;59832;51.146;14.024;2024-01-30T11:32:37;29.08;;;15.35;;
71959;SDS011;59832;51.146;14.024;2024-01-30T11:35:04;30.17;;;15.85;;
71959;SDS011;59832;51.146;14.024;2024-01-30T11:37:32;27.25;;;15.88;;
71959;SDS011;59832;51.146;14.024;2024-01-30T11:40:04;29.23;;;15.60;;
71959;SDS011;59832;51.146;14.024;2024-01-30T11:42:31;26.10;;;15.60;;
71959;SDS011;59832;51.146;14.024;2024-01-30T11:44:59;29.17;;;16.58;;
71959;SDS011;59832;51.146;14.024;2024-01-30T11:47:28;27.60;;;15.63;;
71959;SDS011;59832;51.146;14.024;2024-01-30T11:49:55;27.05;;;16.30;;
71959;SDS011;59832;51.146;14.024;2024-01-30T11:52:25;29.90;;;16.52;;
71959;SDS011;59832;51.146;14.024;2024-01-30T11:54:52;33.40;;;17.58;;
71959;SDS011;59832;51.146;14.024;2024-01-30T11:57:19;30.95;;;17.15;;
71959;SDS011;59832;51.146;14.024;2024-01-30T11:59:45;33.75;;;17.27;;
71959;SDS011;59832;51.146;14.024;2024-01-30T12:02:15;30.65;;;17.55;;
71959;SDS011;59832;51.146;14.024;2024-01-30T12:04:42;32.65;;;18.08;;
71959;SDS011;59832;51.146;14.024;2024-01-30T12:07:09;35.07;;;18.37;;
71959;SDS011;59832;51.146;14.024;2024-01-30T12:09:36;33.10;;;17.65;;
71959;SDS011;59832;51.146;14.024;2024-01-30T12:12:02;35.88;;;17.88;;
71959;SDS011;59832;51.146;14.024;2024-01-30T12:14:29;33.35;;;18.23;;
71959;SDS011;59832;51.146;14.024;2024-01-30T12:16:55;30.43;;;17.73;;
71959;SDS011;59832;51.146;14.024;2024-01-30T12:19:25;36.60;;;18.10;;
71959;SDS011;59832;51.146;14.024;2024-01-30T12:21:56;35.28;;;18.70;;
71959;SDS011;59832;51.146;14.024;2024-01-30T12:24:25;35.92;;;18.70;;
71959;SDS011;59832;51.146;14.024;2024-01-30T12:26:56;30.38;;;16.77;;
71959;SDS011;59832;51.146;14.024;2024-01-30T12:29:24;31.45;;;17.00;;
71959;SDS011;59832;51.146;14.024;2024-01-30T12:31:52;36.47;;;18.30;;
71959;SDS011;59832;51.146;14.024;2024-01-30T12:34:21;36.50;;;19.55;;
71959;SDS011;59832;51.146;14.024;2024-01-30T12:36:47;34.37;;;18.73;;
71959;SDS011;59832;51.146;14.024;2024-01-30T12:39:15;34.30;;;18.50;;
71959;SDS011;59832;51.146;14.024;2024-01-30T12:41:42;34.90;;;17.63;;
71959;SDS011;59832;51.146;14.024;2024-01-30T12:44:08;34.23;;;18.47;;
71959;SDS011;59832;51.146;14.024;2024-01-30T12:46:35;32.55;;;17.33;;
71959;SDS011;59832;51.146;14.024;2024-01-30T12:49:01;35.20;;;18.40;;
71959;SDS011;59832;51.146;14.024;2024-01-30T12:51:28;36.73;;;18.83;;
71959;SDS011;59832;51.146;14.024;2024-01-30T12:53:54;36.23;;;18.67;;
71959;SDS011;59832;51.146;14.024;2024-01-30T12:56:21;41.85;;;19.63;;
71959;SDS011;59832;51.146;14.024;2024-01-30T12:58:47;38.05;;;19.27;;
71959;SDS011;59832;51.146;14.024;2024-01-30T13:01:18;37.80;;;19.13;;
71959;SDS011;59832;51.146;14.024;2024-01-30T13:03:44;34.37;;;18.87;;
71959;SDS011;59832;51.146;14.024;2024-01-30T13:06:11;38.00;;;19.50;;
71959;SDS011;59832;51.146;14.024;2024-01-30T13:08:37;35.47;;;18.50;;
71959;SDS011;59832;51.146;14.024;2024-01-30T13:11:04;38.25;;;19.13;;
71959;SDS011;59832;51.146;14.024;2024-01-30T13:13:30;37.15;;;18.08;;
71959;SDS011;59832;51.146;14.024;2024-01-30T13:15:57;40.58;;;20.15;;
71959;SDS011;59832;51.146;14.024;2024-01-30T13:18:23;35.55;;;18.75;;
71959;SDS011;59832;51.146;14.024;2024-01-30T13:20:50;40.00;;;19.25;;
71959;SDS011;59832;51.146;14.024;2024-01-30T13:23:16;39.08;;;18.98;;
71959;SDS011;59832;51.146;14.024;2024-01-30T13:25:43;38.70;;;19.02;;
71959;SDS011;59832;51.146;14.024;2024-01-30T13:28:09;40.63;;;19.70;;
71959;SDS011;59832;51.146;14.024;2024-01-30T13:30:36;36.83;;;18.63;;
71959;SDS011;59832;51.146;14.024;2024-01-30T13:33:03;40.28;;;19.17;;
71959;SDS011;59832;51.146;14.024;2024-01-30T13:35:29;35.40;;;18.85;;
71959;SDS011;59832;51.146;14.024;2024-01-30T13:37:56;35.72;;;18.80;;
71959;SDS011;59832;51.146;14.024;2024-01-30T13:40:22;32.35;;;17.20;;
71959;SDS011;59832;51.146;14.024;2024-01-30T13:42:49;32.15;;;17.77;;
71959;SDS011;59832;51.146;14.024;2024-01-30T13:45:15;33.22;;;17.63;;
71959;SDS011;59832;51.146;14.024;2024-01-30T13:47:42;31.98;;;17.40;;
71959;SDS011;59832;51.146;14.024;2024-01-30T13:50:08;35.83;;;17.60;;
71959;SDS011;59832;51.146;14.024;2024-01-30T13:52:41;33.72;;;18.35;;
71959;SDS011;59832;51.146;14.024;2024-01-30T13:55:11;35.72;;;17.83;;
71959;SDS011;59832;51.146;14.024;2024-01-30T13:57:38;36.00;;;18.85;;
71959;SDS011;59832;51.146;14.024;2024-01-30T14:00:04;32.65;;;18.13;;
71959;SDS011;59832;51.146;14.024;2024-01-30T14:02:32;37.95;;;20.42;;
71959;SDS011;59832;51.146;14.024;2024-01-30T14:04:59;37.15;;;20.17;;
71959;SDS011;59832;51.146;14.024;2024-01-30T14:07:26;34.30;;;17.95;;
71959;SDS011;59832;51.146;14.024;2024-01-30T14:09:53;31.50;;;18.27;;
71959;SDS011;59832;51.146;14.024;2024-01-30T14:12:19;36.28;;;18.98;;
71959;SDS011;59832;51.146;14.024;2024-01-30T14:14:45;47.63;;;23.85;;
71959;SDS011;59832;51.146;14.024;2024-01-30T14:17:12;41.25;;;21.13;;
71959;SDS011;59832;51.146;14.024;2024-01-30T14:19:38;32.55;;;18.13;;
71959;SDS011;59832;51.146;14.024;2024-01-30T14:22:05;35.10;;;18.42;;